createdAt,value
2022-09-04T00:00:41.608Z,0
2022-09-04T00:01:44.996Z,0
2022-09-04T00:02:48.039Z,0
2022-09-04T00:03:51.031Z,0
2022-09-04T00:04:55.027Z,0
2022-09-04T00:05:59.232Z,0
2022-09-04T00:07:02.113Z,0
2022-09-04T00:08:05.263Z,0
2022-09-04T00:09:08.722Z,0
2022-09-04T00:10:10.498Z,0
2022-09-04T00:11:13.124Z,0
2022-09-04T00:12:16.263Z,0
2022-09-04T00:13:19.138Z,0
2022-09-04T00:14:21.935Z,0
2022-09-04T00:15:24.727Z,0
2022-09-04T00:16:28.199Z,0
2022-09-04T00:17:31.338Z,0
2022-09-04T00:18:34.494Z,0
2022-09-04T00:19:37.480Z,0
2022-09-04T00:20:39.882Z,0
2022-09-04T00:21:42.397Z,0
2022-09-04T00:22:45.830Z,0
2022-09-04T00:23:49.068Z,0
2022-09-04T00:24:51.306Z,0
2022-09-04T00:25:54.439Z,0
2022-09-04T00:26:57.617Z,0
2022-09-04T00:28:01.032Z,0
2022-09-04T00:29:03.836Z,0
2022-09-04T00:30:06.903Z,0
2022-09-04T00:31:09.519Z,0
2022-09-04T00:32:12.645Z,0
2022-09-04T00:33:16.037Z,0
2022-09-04T00:34:19.302Z,0
2022-09-04T00:35:22.086Z,0
2022-09-04T00:36:25.084Z,0
2022-09-04T00:37:28.513Z,0
2022-09-04T00:38:31.865Z,0
2022-09-04T00:39:35.436Z,0
2022-09-04T00:40:38.840Z,0
2022-09-04T00:41:41.631Z,0
2022-09-04T00:42:44.499Z,0
2022-09-04T00:43:47.570Z,0
2022-09-04T00:44:50.818Z,0
2022-09-04T00:45:53.404Z,0
2022-09-04T00:46:56.938Z,0
2022-09-04T00:48:00.112Z,0
2022-09-04T00:49:03.200Z,0
2022-09-04T00:50:06.539Z,0
2022-09-04T00:51:09.330Z,0
2022-09-04T00:52:12.406Z,0
2022-09-04T00:53:14.979Z,0
2022-09-04T00:54:18.418Z,0
2022-09-04T00:55:21.122Z,0
2022-09-04T00:56:24.007Z,0
2022-09-04T00:57:27.150Z,0
2022-09-04T00:58:30.296Z,0
2022-09-04T00:59:32.892Z,0
2022-09-04T01:00:34.864Z,0
2022-09-04T01:01:38.865Z,0
2022-09-04T01:02:42.999Z,0
2022-09-04T01:03:46.142Z,0
2022-09-04T01:04:50.576Z,0
2022-09-04T01:05:54.179Z,0
2022-09-04T01:06:57.185Z,0
2022-09-04T01:08:00.263Z,0
2022-09-04T01:09:03.420Z,0
2022-09-04T01:10:06.682Z,0
2022-09-04T01:11:10.165Z,0
2022-09-04T01:12:13.539Z,0
2022-09-04T01:13:16.329Z,0
2022-09-04T01:14:19.753Z,0
2022-09-04T01:15:23.186Z,0
2022-09-04T01:16:26.110Z,0
2022-09-04T01:17:29.479Z,0
2022-09-04T01:18:32.385Z,0
2022-09-04T01:19:34.818Z,0
2022-09-04T01:20:38.546Z,0
2022-09-04T01:21:43.474Z,0
2022-09-04T01:22:46.899Z,0
2022-09-04T01:23:49.505Z,0
2022-09-04T01:24:52.424Z,0
2022-09-04T01:25:55.838Z,0
2022-09-04T01:26:58.350Z,0
2022-09-04T01:28:01.332Z,0
2022-09-04T01:29:04.206Z,0
2022-09-04T01:30:06.891Z,0
2022-09-04T01:31:09.788Z,0
2022-09-04T01:32:12.928Z,0
2022-09-04T01:33:16.710Z,0
2022-09-04T01:34:19.042Z,0
2022-09-04T01:35:21.835Z,0
2022-09-04T01:36:24.916Z,0
2022-09-04T01:37:28.613Z,0
2022-09-04T01:38:31.749Z,0
2022-09-04T01:39:34.860Z,0
2022-09-04T01:40:37.053Z,0
2022-09-04T01:41:40.231Z,0
2022-09-04T01:42:43.399Z,0
2022-09-04T01:43:46.360Z,0
2022-09-04T01:44:49.518Z,0
2022-09-04T01:45:52.131Z,0
2022-09-04T01:46:55.568Z,0
2022-09-04T01:47:58.641Z,0
2022-09-04T01:49:01.809Z,0
2022-09-04T01:50:04.964Z,0
2022-09-04T01:51:07.961Z,0
2022-09-04T01:52:10.753Z,0
2022-09-04T01:53:14.269Z,0
2022-09-04T01:54:19.620Z,0
2022-09-04T01:55:22.764Z,0
2022-09-04T01:56:25.558Z,0
2022-09-04T01:57:28.350Z,0
2022-09-04T01:58:31.340Z,0
2022-09-04T01:59:33.859Z,0
2022-09-04T02:00:37.886Z,0
2022-09-04T02:01:40.836Z,0
2022-09-04T02:02:44.053Z,0
2022-09-04T02:03:55.772Z,0
2022-09-04T02:04:58.650Z,0
2022-09-04T02:06:08.899Z,0
2022-09-04T02:07:11.713Z,0
2022-09-04T02:08:14.870Z,0
2022-09-04T02:09:18.020Z,0
2022-09-04T02:10:21.108Z,0
2022-09-04T02:11:27.753Z,0
2022-09-04T02:12:31.815Z,0
2022-09-04T02:13:34.145Z,0
2022-09-04T02:14:37.601Z,0
2022-09-04T02:15:40.945Z,0
2022-09-04T02:16:43.913Z,0
2022-09-04T02:17:47.601Z,0
2022-09-04T02:18:50.942Z,0
2022-09-04T02:19:54.077Z,0
2022-09-04T02:20:57.213Z,0
2022-09-04T02:22:00.175Z,0
2022-09-04T02:23:03.368Z,0
2022-09-04T02:24:06.352Z,0
2022-09-04T02:25:10.061Z,0
2022-09-04T02:26:12.575Z,0
2022-09-04T02:27:15.657Z,0
2022-09-04T02:28:19.963Z,0
2022-09-04T02:29:22.622Z,0
2022-09-04T02:30:25.201Z,0
2022-09-04T02:31:28.517Z,0
2022-09-04T02:32:31.592Z,0
2022-09-04T02:33:34.472Z,0
2022-09-04T02:34:37.551Z,0
2022-09-04T02:35:40.668Z,0
2022-09-04T02:36:43.814Z,0
2022-09-04T02:37:51.669Z,0
2022-09-04T02:38:54.260Z,0
2022-09-04T02:39:57.472Z,0
2022-09-04T02:41:00.339Z,0
2022-09-04T02:42:02.854Z,0
2022-09-04T02:43:06.326Z,0
2022-09-04T02:44:09.402Z,0
2022-09-04T02:45:12.556Z,0
2022-09-04T02:46:15.407Z,0
2022-09-04T02:47:18.783Z,0
2022-09-04T02:48:21.743Z,0
2022-09-04T02:49:25.613Z,0
2022-09-04T02:50:28.282Z,0
2022-09-04T02:51:30.896Z,0
2022-09-04T02:52:34.045Z,0
2022-09-04T02:53:36.995Z,0
2022-09-04T02:54:40.073Z,0
2022-09-04T02:55:43.427Z,0
2022-09-04T02:56:46.125Z,0
2022-09-04T02:57:49.465Z,0
2022-09-04T02:58:56.892Z,0
2022-09-04T02:59:59.770Z,0
2022-09-04T03:01:02.695Z,0
2022-09-04T03:02:06.454Z,0
2022-09-04T03:03:09.351Z,0
2022-09-04T03:04:12.151Z,0
2022-09-04T03:05:15.022Z,0
2022-09-04T03:06:18.023Z,0
2022-09-04T03:07:21.449Z,0
2022-09-04T03:08:24.910Z,0
2022-09-04T03:09:29.737Z,0
2022-09-04T03:10:32.730Z,0
2022-09-04T03:11:36.342Z,0
2022-09-04T03:12:38.925Z,0
2022-09-04T03:13:42.369Z,0
2022-09-04T03:14:48.437Z,0
2022-09-04T03:15:52.004Z,0
2022-09-04T03:16:55.477Z,0
2022-09-04T03:17:58.420Z,0
2022-09-04T03:19:01.566Z,0
2022-09-04T03:20:09.681Z,0
2022-09-04T03:21:12.856Z,0
2022-09-04T03:22:16.280Z,0
2022-09-04T03:23:19.803Z,0
2022-09-04T03:24:21.951Z,0
2022-09-04T03:25:25.293Z,0
2022-09-04T03:26:28.644Z,0
2022-09-04T03:27:31.697Z,0
2022-09-04T03:28:34.573Z,0
2022-09-04T03:29:37.648Z,0
2022-09-04T03:30:40.540Z,0
2022-09-04T03:31:46.635Z,0
2022-09-04T03:32:49.963Z,0
2022-09-04T03:33:53.902Z,0
2022-09-04T03:34:57.464Z,0
2022-09-04T03:36:00.777Z,0
2022-09-04T03:37:04.353Z,0
2022-09-04T03:38:06.793Z,0
2022-09-04T03:39:09.789Z,0
2022-09-04T03:40:12.105Z,0
2022-09-04T03:41:15.486Z,0
2022-09-04T03:42:18.212Z,0
2022-09-04T03:43:21.659Z,0
2022-09-04T03:44:24.722Z,0
2022-09-04T03:45:27.394Z,0
2022-09-04T03:46:31.138Z,0
2022-09-04T03:47:34.473Z,0
2022-09-04T03:48:37.822Z,0
2022-09-04T03:49:40.605Z,0
2022-09-04T03:50:43.690Z,0
2022-09-04T03:51:46.582Z,0
2022-09-04T03:52:53.127Z,4
2022-09-04T03:53:56.610Z,4
2022-09-04T03:54:59.603Z,0
2022-09-04T03:56:02.392Z,0
2022-09-04T03:57:05.368Z,4
2022-09-04T03:58:08.436Z,4
2022-09-04T03:59:11.584Z,4
2022-09-04T04:00:14.929Z,8
2022-09-04T04:01:20.567Z,4
2022-09-04T04:02:27.962Z,8
2022-09-04T04:03:30.056Z,8
2022-09-04T04:04:32.930Z,8
2022-09-04T04:05:36.508Z,12
2022-09-04T04:06:39.167Z,16
2022-09-04T04:07:42.381Z,20
2022-09-04T04:08:44.916Z,20
2022-09-04T04:09:48.042Z,24
2022-09-04T04:10:50.888Z,32
2022-09-04T04:11:54.073Z,36
2022-09-04T04:12:56.507Z,40
2022-09-04T04:13:59.858Z,44
2022-09-04T04:15:02.832Z,52
2022-09-04T04:16:06.206Z,60
2022-09-04T04:17:12.510Z,72
2022-09-04T04:18:23.123Z,84
2022-09-04T04:19:26.528Z,92
2022-09-04T04:20:28.494Z,104
2022-09-04T04:21:31.185Z,112
2022-09-04T04:22:33.778Z,128
2022-09-04T04:23:36.851Z,140
2022-09-04T04:24:39.923Z,152
2022-09-04T04:25:42.633Z,164
2022-09-04T04:26:55.097Z,180
2022-09-04T04:27:57.771Z,196
2022-09-04T04:29:02.996Z,212
2022-09-04T04:30:06.065Z,232
2022-09-04T04:31:09.174Z,252
2022-09-04T04:32:12.219Z,272
2022-09-04T04:33:15.432Z,300
2022-09-04T04:34:18.585Z,324
2022-09-04T04:35:21.095Z,344
2022-09-04T04:36:24.038Z,368
2022-09-04T04:37:29.218Z,396
2022-09-04T04:38:32.083Z,428
2022-09-04T04:39:35.076Z,456
2022-09-04T04:40:38.771Z,480
2022-09-04T04:41:42.270Z,504
2022-09-04T04:42:45.544Z,516
2022-09-04T04:43:48.063Z,544
2022-09-04T04:44:50.305Z,576
2022-09-04T04:45:53.297Z,616
2022-09-04T04:46:56.404Z,664
2022-09-04T04:48:01.043Z,720
2022-09-04T04:49:04.309Z,760
2022-09-04T04:50:07.103Z,788
2022-09-04T04:51:09.896Z,816
2022-09-04T04:52:12.506Z,868
2022-09-04T04:53:15.103Z,904
2022-09-04T04:54:17.699Z,948
2022-09-04T04:55:20.570Z,1008
2022-09-04T04:56:23.440Z,1048
2022-09-04T04:57:26.042Z,1092
2022-09-04T04:58:29.463Z,1140
2022-09-04T04:59:32.603Z,1204
2022-09-04T05:00:35.385Z,1272
2022-09-04T05:01:38.976Z,1336
2022-09-04T05:02:42.736Z,1412
2022-09-04T05:03:46.989Z,1464
2022-09-04T05:04:50.242Z,1532
2022-09-04T05:05:53.099Z,1624
2022-09-04T05:06:55.991Z,1680
2022-09-04T05:07:58.499Z,1756
2022-09-04T05:09:09.615Z,1864
2022-09-04T05:10:12.652Z,1968
2022-09-04T05:11:15.219Z,2032
2022-09-04T05:12:18.087Z,2116
2022-09-04T05:13:21.216Z,2220
2022-09-04T05:14:24.083Z,2296
2022-09-04T05:15:27.152Z,2368
2022-09-04T05:16:30.053Z,2372
2022-09-04T05:17:33.643Z,2368
2022-09-04T05:18:36.235Z,2476
2022-09-04T05:19:40.203Z,2684
2022-09-04T05:20:42.995Z,2796
2022-09-04T05:21:46.144Z,2908
2022-09-04T05:22:49.106Z,2996
2022-09-04T05:23:52.253Z,3040
2022-09-04T05:24:55.704Z,3060
2022-09-04T05:25:58.558Z,3136
2022-09-04T05:27:01.354Z,3220
2022-09-04T05:28:03.963Z,3328
2022-09-04T05:29:06.280Z,3432
2022-09-04T05:30:08.514Z,3488
2022-09-04T05:31:10.935Z,3692
2022-09-04T05:32:14.341Z,3804
2022-09-04T05:33:17.497Z,4004
2022-09-04T05:34:20.088Z,4240
2022-09-04T05:35:23.512Z,4392
2022-09-04T05:36:37.915Z,4700
2022-09-04T05:37:40.808Z,4880
2022-09-04T05:38:43.582Z,4912
2022-09-04T05:39:46.831Z,5008
2022-09-04T05:40:52.741Z,5124
2022-09-04T05:41:55.885Z,5160
2022-09-04T05:42:58.472Z,5080
2022-09-04T05:44:00.986Z,5136
2022-09-04T05:45:03.795Z,5084
2022-09-04T05:46:06.691Z,5120
2022-09-04T05:47:09.954Z,5140
2022-09-04T05:48:12.742Z,5120
2022-09-04T05:49:15.893Z,5052
2022-09-04T05:50:18.476Z,4956
2022-09-04T05:51:24.678Z,4820
2022-09-04T05:52:26.838Z,4660
2022-09-04T05:53:29.790Z,4508
2022-09-04T05:54:32.916Z,4388
2022-09-04T05:55:35.777Z,4296
2022-09-04T05:56:38.651Z,4212
2022-09-04T05:57:41.794Z,4096
2022-09-04T05:58:44.672Z,4088
2022-09-04T05:59:47.735Z,4132
2022-09-04T06:00:51.173Z,4184
2022-09-04T06:01:55.553Z,4280
2022-09-04T06:02:58.494Z,4616
2022-09-04T06:04:01.877Z,4660
2022-09-04T06:05:05.021Z,4852
2022-09-04T06:06:08.176Z,4904
2022-09-04T06:07:10.902Z,5360
2022-09-04T06:08:14.241Z,5528
2022-09-04T06:09:16.947Z,5472
2022-09-04T06:10:20.153Z,5476
2022-09-04T06:11:23.301Z,5464
2022-09-04T06:12:26.724Z,5600
2022-09-04T06:13:29.969Z,5912
2022-09-04T06:14:35.333Z,6164
2022-09-04T06:15:38.628Z,6288
2022-09-04T06:16:42.298Z,6324
2022-09-04T06:17:44.731Z,6288
2022-09-04T06:18:47.716Z,6260
2022-09-04T06:19:50.597Z,6068
2022-09-04T06:20:53.652Z,5848
2022-09-04T06:21:57.077Z,5776
2022-09-04T06:23:02.985Z,5852
2022-09-04T06:24:06.432Z,6044
2022-09-04T06:25:09.354Z,6320
2022-09-04T06:26:13.351Z,6712
2022-09-04T06:27:16.791Z,7132
2022-09-04T06:28:19.289Z,7608
2022-09-04T06:29:22.603Z,7896
2022-09-04T06:30:25.524Z,8116
2022-09-04T06:31:29.065Z,8152
2022-09-04T06:32:32.118Z,8124
2022-09-04T06:33:35.852Z,8408
2022-09-04T06:34:38.533Z,8064
2022-09-04T06:35:40.854Z,8008
2022-09-04T06:36:46.056Z,7700
2022-09-04T06:37:49.001Z,7392
2022-09-04T06:38:51.795Z,7396
2022-09-04T06:39:54.513Z,7408
2022-09-04T06:40:58.387Z,7160
2022-09-04T06:42:01.175Z,7596
2022-09-04T06:43:03.757Z,7752
2022-09-04T06:44:06.748Z,7588
2022-09-04T06:45:09.826Z,7680
2022-09-04T06:46:12.545Z,7588
2022-09-04T06:47:19.376Z,7604
2022-09-04T06:48:22.133Z,7664
2022-09-04T06:49:26.060Z,7460
2022-09-04T06:50:28.930Z,7908
2022-09-04T06:51:32.435Z,7960
2022-09-04T06:52:37.184Z,8028
2022-09-04T06:53:39.969Z,8064
2022-09-04T06:54:43.180Z,8028
2022-09-04T06:55:46.494Z,8000
2022-09-04T06:56:49.287Z,8432
2022-09-04T06:57:55.115Z,8296
2022-09-04T06:59:01.151Z,8808
2022-09-04T07:00:04.525Z,9124
2022-09-04T07:01:07.549Z,9352
2022-09-04T07:02:10.884Z,9484
2022-09-04T07:03:14.936Z,9180
2022-09-04T07:04:17.252Z,9196
2022-09-04T07:05:20.331Z,9704
2022-09-04T07:06:23.468Z,9772
2022-09-04T07:07:26.457Z,9764
2022-09-04T07:08:29.284Z,9796
2022-09-04T07:09:32.112Z,9696
2022-09-04T07:10:35.194Z,9728
2022-09-04T07:11:38.276Z,9668
2022-09-04T07:12:40.858Z,9520
2022-09-04T07:13:44.002Z,9384
2022-09-04T07:14:47.091Z,9260
2022-09-04T07:15:49.897Z,9256
2022-09-04T07:16:53.168Z,9224
2022-09-04T07:18:00.800Z,9224
2022-09-04T07:19:04.372Z,9272
2022-09-04T07:20:07.711Z,9316
2022-09-04T07:21:10.571Z,9380
2022-09-04T07:22:14.004Z,9452
2022-09-04T07:23:17.138Z,9528
2022-09-04T07:24:19.741Z,9640
2022-09-04T07:25:22.803Z,9744
2022-09-04T07:26:25.205Z,9876
2022-09-04T07:27:27.716Z,10008
2022-09-04T07:28:29.947Z,9880
2022-09-04T07:29:33.080Z,9880
2022-09-04T07:30:36.606Z,10028
2022-09-04T07:31:39.423Z,10300
2022-09-04T07:32:43.140Z,10404
2022-09-04T07:33:45.725Z,10508
2022-09-04T07:34:49.238Z,10356
2022-09-04T07:35:52.024Z,10464
2022-09-04T07:36:55.017Z,10696
2022-09-04T07:37:57.605Z,10788
2022-09-04T07:39:01.014Z,10868
2022-09-04T07:40:03.716Z,11028
2022-09-04T07:41:11.206Z,11188
2022-09-04T07:42:20.715Z,11396
2022-09-04T07:43:23.582Z,11628
2022-09-04T07:44:26.776Z,11820
2022-09-04T07:45:29.103Z,12024
2022-09-04T07:46:32.139Z,12228
2022-09-04T07:47:35.803Z,12436
2022-09-04T07:48:38.883Z,12472
2022-09-04T07:49:41.951Z,12668
2022-09-04T07:50:45.040Z,12884
2022-09-04T07:51:47.999Z,13168
2022-09-04T07:52:57.572Z,13584
2022-09-04T07:54:13.373Z,16756
2022-09-04T07:55:26.360Z,48960
2022-09-04T07:56:29.512Z,66112
2022-09-04T07:57:32.934Z,66272
2022-09-04T07:58:35.258Z,65632
2022-09-04T07:59:38.970Z,64032
2022-09-04T08:00:42.475Z,59424
2022-09-04T08:01:45.675Z,58016
2022-09-04T08:02:48.609Z,60416
2022-09-04T08:03:54.206Z,61472
2022-09-04T08:04:57.534Z,64032
2022-09-04T08:06:01.101Z,63168
2022-09-04T08:07:07.154Z,70112
2022-09-04T08:08:14.005Z,72576
2022-09-04T08:09:17.456Z,66400
2022-09-04T08:10:19.908Z,60256
2022-09-04T08:11:23.115Z,71424
2022-09-04T08:12:26.278Z,76032
2022-09-04T08:13:28.860Z,74976
2022-09-04T08:14:32.088Z,80672
2022-09-04T08:15:37.284Z,81600
2022-09-04T08:16:45.404Z,81824
2022-09-04T08:17:48.816Z,81536
2022-09-04T08:18:51.929Z,81088
2022-09-04T08:19:54.254Z,77664
2022-09-04T08:20:56.773Z,75008
2022-09-04T08:21:59.826Z,77504
2022-09-04T08:23:02.975Z,76224
2022-09-04T08:24:06.417Z,80576
2022-09-04T08:25:09.218Z,73312
2022-09-04T08:26:12.576Z,74272
2022-09-04T08:27:15.457Z,79360
2022-09-04T08:28:18.687Z,78912
2022-09-04T08:29:21.980Z,76512
2022-09-04T08:30:25.116Z,78048
2022-09-04T08:31:28.872Z,82432
2022-09-04T08:32:32.511Z,87840
2022-09-04T08:33:41.271Z,66720
2022-09-04T08:34:43.981Z,81088
2022-09-04T08:35:46.978Z,90848
2022-09-04T08:36:49.569Z,88416
2022-09-04T08:37:52.155Z,89792
2022-09-04T08:38:54.185Z,92608
2022-09-04T08:39:57.382Z,88864
2022-09-04T08:41:01.115Z,83008
2022-09-04T08:42:03.983Z,84128
2022-09-04T08:43:07.423Z,84352
2022-09-04T08:44:09.751Z,70656
2022-09-04T08:45:12.700Z,80192
2022-09-04T08:46:16.165Z,82816
2022-09-04T08:47:18.857Z,87424
2022-09-04T08:48:21.950Z,94496
2022-09-04T08:49:24.666Z,96800
2022-09-04T08:50:27.819Z,99616
2022-09-04T08:51:30.338Z,99264
2022-09-04T08:52:34.065Z,101216
2022-09-04T08:53:37.281Z,104160
2022-09-04T08:54:39.792Z,104640
2022-09-04T08:55:42.467Z,107072
2022-09-04T08:56:45.620Z,100800
2022-09-04T08:57:48.812Z,104384
2022-09-04T08:58:51.213Z,103904
2022-09-04T08:59:58.711Z,108704
2022-09-04T09:01:01.839Z,107040
2022-09-04T09:02:05.166Z,101216
2022-09-04T09:03:08.296Z,108736
2022-09-04T09:04:11.560Z,106304
2022-09-04T09:05:14.241Z,106080
2022-09-04T09:06:17.017Z,105408
2022-09-04T09:07:19.459Z,99392
2022-09-04T09:08:22.563Z,97344
2022-09-04T09:09:33.606Z,102656
2022-09-04T09:10:37.305Z,100672
2022-09-04T09:11:41.372Z,108704
2022-09-04T09:12:43.890Z,111776
2022-09-04T09:13:47.049Z,111648
2022-09-04T09:14:49.577Z,114112
2022-09-04T09:15:52.707Z,107328
2022-09-04T09:16:55.902Z,112448
2022-09-04T09:17:59.302Z,115616
2022-09-04T09:19:02.433Z,111872
2022-09-04T09:20:05.580Z,111168
2022-09-04T09:21:09.203Z,112384
2022-09-04T09:22:12.123Z,117120
2022-09-04T09:23:18.043Z,117024
2022-09-04T09:24:21.778Z,114816
2022-09-04T09:25:24.499Z,112320
2022-09-04T09:26:27.444Z,111616
2022-09-04T09:27:30.262Z,111008
2022-09-04T09:28:33.062Z,109056
2022-09-04T09:29:36.515Z,103904
2022-09-04T09:30:39.255Z,104160
2022-09-04T09:31:42.543Z,105792
2022-09-04T09:32:45.583Z,108032
2022-09-04T09:33:48.359Z,111104
2022-09-04T09:34:50.950Z,112096
2022-09-04T09:35:54.474Z,114464
2022-09-04T09:36:57.209Z,115456
2022-09-04T09:38:04.263Z,116032
2022-09-04T09:39:07.641Z,114336
2022-09-04T09:40:10.513Z,109280
2022-09-04T09:41:13.505Z,112864
2022-09-04T09:42:15.815Z,112832
2022-09-04T09:43:18.901Z,113056
2022-09-04T09:44:22.151Z,111456
2022-09-04T09:45:25.601Z,109408
2022-09-04T09:46:28.266Z,107968
2022-09-04T09:47:31.151Z,106336
2022-09-04T09:48:34.217Z,105632
2022-09-04T09:49:37.003Z,104064
2022-09-04T09:50:40.899Z,104288
2022-09-04T09:51:44.321Z,102176
2022-09-04T09:52:46.551Z,102336
2022-09-04T09:53:50.923Z,105056
2022-09-04T09:54:53.439Z,107104
2022-09-04T09:55:56.530Z,104640
2022-09-04T09:56:59.115Z,110144
2022-09-04T09:58:02.936Z,103744
2022-09-04T09:59:06.006Z,110048
2022-09-04T10:00:09.739Z,110976
2022-09-04T10:01:13.128Z,112128
2022-09-04T10:02:16.793Z,109952
2022-09-04T10:03:19.541Z,111936
2022-09-04T10:04:22.786Z,113696
2022-09-04T10:05:25.171Z,113824
2022-09-04T10:06:28.310Z,114336
2022-09-04T10:07:30.827Z,118944
2022-09-04T10:08:35.853Z,117248
2022-09-04T10:09:39.345Z,116576
2022-09-04T10:10:42.225Z,117600
2022-09-04T10:11:45.371Z,118112
2022-09-04T10:12:48.746Z,118656
2022-09-04T10:13:52.472Z,120896
2022-09-04T10:14:55.431Z,121280
2022-09-04T10:15:58.619Z,119424
2022-09-04T10:17:01.352Z,119200
2022-09-04T10:18:05.003Z,121920
2022-09-04T10:19:08.475Z,122720
2022-09-04T10:20:11.343Z,120896
2022-09-04T10:21:13.665Z,120800
2022-09-04T10:22:16.755Z,119136
2022-09-04T10:23:20.253Z,119360
2022-09-04T10:24:23.766Z,117088
2022-09-04T10:25:26.918Z,114752
2022-09-04T10:26:31.867Z,112512
2022-09-04T10:27:35.263Z,113152
2022-09-04T10:28:46.138Z,114528
2022-09-04T10:29:48.441Z,117376
2022-09-04T10:30:50.730Z,110336
2022-09-04T10:31:53.962Z,122848
2022-09-04T10:32:57.213Z,122048
2022-09-04T10:33:59.802Z,126208
2022-09-04T10:35:02.590Z,126304
2022-09-04T10:36:05.715Z,125280
2022-09-04T10:37:08.512Z,125952
2022-09-04T10:38:11.668Z,127200
2022-09-04T10:39:15.097Z,125792
2022-09-04T10:40:21.910Z,121824
2022-09-04T10:41:24.219Z,113504
2022-09-04T10:42:27.309Z,117824
2022-09-04T10:43:29.825Z,115744
2022-09-04T10:44:33.355Z,112544
2022-09-04T10:45:36.173Z,112544
2022-09-04T10:46:40.199Z,114912
2022-09-04T10:47:43.624Z,115168
2022-09-04T10:48:46.492Z,117152
2022-09-04T10:49:49.554Z,126624
2022-09-04T10:50:52.621Z,125856
2022-09-04T10:51:55.779Z,131296
2022-09-04T10:52:58.845Z,132416
2022-09-04T10:54:05.477Z,130720
2022-09-04T10:55:10.812Z,136320
2022-09-04T10:56:13.047Z,135552
2022-09-04T10:57:15.353Z,134720
2022-09-04T10:58:18.137Z,128352
2022-09-04T10:59:21.781Z,127200
2022-09-04T11:00:25.244Z,124544
2022-09-04T11:01:28.736Z,123936
2022-09-04T11:02:31.916Z,122656
2022-09-04T11:03:35.528Z,116384
2022-09-04T11:04:38.507Z,117248
2022-09-04T11:05:41.738Z,118720
2022-09-04T11:06:46.125Z,122880
2022-09-04T11:07:48.916Z,125888
2022-09-04T11:08:51.629Z,28192
2022-09-04T11:09:54.789Z,118048
2022-09-04T11:10:57.750Z,126048
2022-09-04T11:12:00.623Z,121952
2022-09-04T11:13:04.957Z,19064
2022-09-04T11:14:07.569Z,21408
2022-09-04T11:15:11.274Z,119136
2022-09-04T11:16:14.563Z,122080
2022-09-04T11:17:17.503Z,120416
2022-09-04T11:18:26.696Z,121472
2022-09-04T11:19:29.484Z,122592
2022-09-04T11:20:31.925Z,124512
2022-09-04T11:21:34.521Z,126688
2022-09-04T11:22:37.683Z,91872
2022-09-04T11:23:41.844Z,121440
2022-09-04T11:24:46.500Z,109440
2022-09-04T11:25:49.460Z,22560
2022-09-04T11:26:52.927Z,118112
2022-09-04T11:27:56.379Z,117664
2022-09-04T11:28:58.992Z,116704
2022-09-04T11:30:01.784Z,117344
2022-09-04T11:31:05.355Z,115360
2022-09-04T11:32:08.215Z,115616
2022-09-04T11:33:11.641Z,115136
2022-09-04T11:34:14.713Z,59616
2022-09-04T11:35:18.648Z,110304
2022-09-04T11:36:21.182Z,68864
2022-09-04T11:37:23.868Z,115712
2022-09-04T11:38:27.020Z,57504
2022-09-04T11:39:30.329Z,19228
2022-09-04T11:40:33.483Z,19680
2022-09-04T11:41:35.999Z,21152
2022-09-04T11:42:38.645Z,26112
2022-09-04T11:43:41.571Z,122464
2022-09-04T11:44:45.294Z,123520
2022-09-04T11:45:48.638Z,120864
2022-09-04T11:46:51.938Z,118592
2022-09-04T11:47:55.025Z,116288
2022-09-04T11:48:57.420Z,112800
2022-09-04T11:50:00.561Z,109728
2022-09-04T11:51:03.353Z,78080
2022-09-04T11:52:06.798Z,93024
2022-09-04T11:53:10.131Z,108608
2022-09-04T11:54:13.484Z,104704
2022-09-04T11:55:16.718Z,106080
2022-09-04T11:56:19.801Z,107552
2022-09-04T11:57:23.247Z,113280
2022-09-04T11:58:26.414Z,69568
2022-09-04T11:59:29.400Z,104288
2022-09-04T12:00:31.711Z,31072
2022-09-04T12:01:35.118Z,52512
2022-09-04T12:02:38.883Z,91808
2022-09-04T12:03:41.639Z,63616
2022-09-04T12:04:44.793Z,71488
2022-09-04T12:05:48.149Z,90240
2022-09-04T12:06:52.152Z,117184
2022-09-04T12:07:54.680Z,117056
2022-09-04T12:08:57.869Z,113088
2022-09-04T12:10:01.344Z,106976
2022-09-04T12:11:04.533Z,107968
2022-09-04T12:12:07.123Z,108960
2022-09-04T12:13:14.885Z,108736
2022-09-04T12:14:31.392Z,106432
2022-09-04T12:15:34.066Z,107520
2022-09-04T12:16:37.030Z,107360
2022-09-04T12:17:39.980Z,108096
2022-09-04T12:18:43.326Z,106816
2022-09-04T12:19:46.797Z,111136
2022-09-04T12:20:49.768Z,87936
2022-09-04T12:21:53.203Z,25248
2022-09-04T12:22:55.517Z,54112
2022-09-04T12:23:58.673Z,114208
2022-09-04T12:25:01.520Z,118336
2022-09-04T12:26:04.672Z,114912
2022-09-04T12:27:14.603Z,115040
2022-09-04T12:28:17.490Z,112192
2022-09-04T12:29:21.305Z,113088
2022-09-04T12:30:23.644Z,110720
2022-09-04T12:31:26.237Z,99136
2022-09-04T12:32:29.418Z,109856
2022-09-04T12:33:32.129Z,91392
2022-09-04T12:34:35.216Z,106336
2022-09-04T12:35:37.554Z,105984
2022-09-04T12:36:40.352Z,105312
2022-09-04T12:37:43.233Z,103200
2022-09-04T12:38:45.698Z,102912
2022-09-04T12:39:48.865Z,101024
2022-09-04T12:40:52.424Z,103072
2022-09-04T12:41:55.112Z,107296
2022-09-04T12:42:58.374Z,18652
2022-09-04T12:44:01.545Z,19552
2022-09-04T12:45:04.511Z,22336
2022-09-04T12:46:07.733Z,73024
2022-09-04T12:47:11.036Z,116896
2022-09-04T12:48:15.513Z,73600
2022-09-04T12:49:18.304Z,110272
2022-09-04T12:50:21.179Z,52768
2022-09-04T12:51:24.499Z,16944
2022-09-04T12:52:27.311Z,15324
2022-09-04T12:53:30.834Z,14992
2022-09-04T12:54:34.008Z,16656
2022-09-04T12:55:37.216Z,17732
2022-09-04T12:56:40.289Z,21152
2022-09-04T12:57:43.777Z,47648
2022-09-04T12:58:46.690Z,83424
2022-09-04T12:59:49.899Z,41728
2022-09-04T13:00:52.001Z,78816
2022-09-04T13:01:55.712Z,20928
2022-09-04T13:03:00.687Z,21824
2022-09-04T13:04:03.415Z,20896
2022-09-04T13:05:06.846Z,37312
2022-09-04T13:06:10.274Z,17124
2022-09-04T13:07:16.157Z,16252
2022-09-04T13:08:19.206Z,15548
2022-09-04T13:09:22.371Z,15908
2022-09-04T13:10:24.813Z,16868
2022-09-04T13:11:27.614Z,17332
2022-09-04T13:12:30.698Z,18820
2022-09-04T13:13:33.293Z,87680
2022-09-04T13:14:36.392Z,51136
2022-09-04T13:15:41.516Z,80352
2022-09-04T13:16:46.040Z,93920
2022-09-04T13:17:52.284Z,46656
2022-09-04T13:18:54.933Z,20384
2022-09-04T13:19:57.734Z,57472
2022-09-04T13:21:00.890Z,40832
2022-09-04T13:22:04.308Z,81280
2022-09-04T13:23:07.185Z,46368
2022-09-04T13:24:14.485Z,27552
2022-09-04T13:25:17.833Z,24416
2022-09-04T13:26:20.707Z,37888
2022-09-04T13:27:23.514Z,26912
2022-09-04T13:28:28.895Z,49504
2022-09-04T13:29:31.504Z,53056
2022-09-04T13:30:36.931Z,23488
2022-09-04T13:31:39.908Z,23232
2022-09-04T13:32:43.632Z,20800
2022-09-04T13:33:48.297Z,21408
2022-09-04T13:34:54.782Z,21856
2022-09-04T13:35:58.124Z,21344
2022-09-04T13:37:01.127Z,19904
2022-09-04T13:38:03.545Z,22208
2022-09-04T13:39:06.650Z,21344
2022-09-04T13:40:09.953Z,22880
2022-09-04T13:41:13.198Z,22656
2022-09-04T13:42:15.713Z,26560
2022-09-04T13:43:19.170Z,23904
2022-09-04T13:44:22.299Z,42464
2022-09-04T13:45:26.010Z,24256
2022-09-04T13:46:29.429Z,27520
2022-09-04T13:47:33.258Z,23296
2022-09-04T13:48:37.270Z,22464
2022-09-04T13:49:40.418Z,23488
2022-09-04T13:50:43.713Z,23872
2022-09-04T13:51:47.539Z,28384
2022-09-04T13:52:50.375Z,28192
2022-09-04T13:53:54.273Z,22976
2022-09-04T13:54:57.647Z,21952
2022-09-04T13:56:01.776Z,19584
2022-09-04T13:57:05.577Z,19168
2022-09-04T13:58:10.216Z,20064
2022-09-04T13:59:12.897Z,20032
2022-09-04T14:00:15.422Z,19936
2022-09-04T14:01:19.008Z,19168
2022-09-04T14:02:23.126Z,17612
2022-09-04T14:03:25.864Z,16516
2022-09-04T14:04:30.195Z,16028
2022-09-04T14:05:34.760Z,17220
2022-09-04T14:06:39.121Z,17364
2022-09-04T14:07:45.162Z,16556
2022-09-04T14:08:55.718Z,16516
2022-09-04T14:10:09.123Z,16568
2022-09-04T14:11:12.267Z,16372